Time;durP1;ratioP1;P1;durP2;ratioP2;P2;SDS_P1;SDS_P2;PMS_P1;PMS_P2;Temp;Humidity;BMP_temperature;BMP_pressure;BME280_temperature;BME280_humidity;BME280_pressure;Samples;Min_cycle;Max_cycle;Signal;HPM_P1;HPM_P2
2022/09/02 00:02:23;;;;;;;;;;;16.90;54.50;;;;;;5012732;28;19957;-82
2022/09/02 00:04:48;;;;;;;;;;;16.80;54.90;;;;;;5015365;28;19924;-82
2022/09/02 00:07:14;;;;;;;;;;;16.80;55.60;;;;;;5039535;28;19931;-82
2022/09/02 00:09:39;;;;;;;;;;;16.70;55.40;;;;;;5041050;28;19912;-82
2022/09/02 00:12:05;;;;;;;;;;;16.60;55.90;;;;;;5042010;28;19937;-81
2022/09/02 00:14:33;;;;;;;;;;;16.60;56.20;;;;;;5025658;28;19917;-82
2022/09/02 00:16:59;;;;;;;;;;;16.60;56.20;;;;;;5030295;28;20349;-82
2022/09/02 00:19:25;;;;;;;;;;;16.50;56.10;;;;;;5015570;28;19963;-83
2022/09/02 00:21:52;;;;;;;;;;;16.50;56.80;;;;;;5012143;28;19917;-82
2022/09/02 00:24:18;;;;;;;;;;;16.50;56.40;;;;;;5033209;28;19956;-81
2022/09/02 00:26:44;;;;;;;;;;;16.70;55.30;;;;;;5032849;28;19920;-82
2022/09/02 00:29:10;;;;;;;;;;;16.60;55.50;;;;;;5014748;28;19924;-82
2022/09/02 00:31:36;;;;;;;;;;;16.60;56.00;;;;;;5026568;28;19918;-82
2022/09/02 00:34:02;;;;;;;;;;;16.50;57.00;;;;;;5014108;28;20001;-82
2022/09/02 00:36:27;;;;;;;;;;;16.60;56.50;;;;;;5032026;28;19944;-82
2022/09/02 00:38:53;;;;;;;;;;;16.50;56.30;;;;;;5030895;28;19920;-82
2022/09/02 00:41:20;;;;;;;;;;;16.50;56.50;;;;;;5030720;28;19917;-82
2022/09/02 00:43:57;;;;;;;;;;;16.50;56.60;;;;;;5015440;28;19917;-81
2022/09/02 00:46:24;;;;;;;;;;;16.40;57.00;;;;;;5017597;28;20376;-82
2022/09/02 00:48:56;;;;;;;;;;;16.30;57.10;;;;;;5034913;28;19913;-82
2022/09/02 00:51:22;;;;;;;;;;;16.30;57.50;;;;;;5029504;28;19959;-82
2022/09/02 00:53:48;;;;;;;;;;;16.30;56.30;;;;;;5034647;28;20104;-82
2022/09/02 00:56:17;;;;;;;;;;;16.30;57.70;;;;;;5015840;28;19959;-82
2022/09/02 00:58:43;;;;;;;;;;;16.40;56.20;;;;;;5032279;28;19964;-80
2022/09/02 01:01:10;;;;;;;;;;;16.50;55.50;;;;;;5028328;28;19960;-81
2022/09/02 01:03:36;;;;;;;;;;;16.30;56.00;;;;;;5009257;28;20051;-80
2022/09/02 01:06:01;;;;;;;;;;;16.20;57.90;;;;;;5020796;28;19960;-81
2022/09/02 01:08:31;;;;;;;;;;;16.20;57.00;;;;;;5030882;28;19979;-81
2022/09/02 01:10:57;;;;;;;;;;;16.20;56.70;;;;;;5011509;28;20364;-81
2022/09/02 01:13:24;;;;;;;;;;;16.30;56.20;;;;;;5012020;28;20012;-80
2022/09/02 01:16:00;;;;;;;;;;;16.20;56.80;;;;;;5012218;28;20011;-80
2022/09/02 01:18:29;;;;;;;;;;;16.10;57.90;;;;;;5027828;28;20399;-80
2022/09/02 01:20:56;;;;;;;;;;;16.10;57.20;;;;;;5007106;28;20035;-81
2022/09/02 01:23:22;;;;;;;;;;;16.00;58.10;;;;;;5011635;28;19938;-81
2022/09/02 01:25:47;;;;;;;;;;;16.20;56.50;;;;;;5017690;28;20400;-81
2022/09/02 01:28:16;;;;;;;;;;;16.10;57.40;;;;;;5034740;28;19949;-81
2022/09/02 01:30:43;;;;;;;;;;;16.10;56.50;;;;;;5029888;28;20407;-80
2022/09/02 01:33:09;;;;;;;;;;;16.20;56.40;;;;;;5014997;28;20021;-81
2022/09/02 01:35:35;;;;;;;;;;;16.20;56.00;;;;;;5030883;28;19929;-81
2022/09/02 01:38:01;;;;;;;;;;;16.00;57.30;;;;;;5014561;28;20238;-80
2022/09/02 01:40:27;;;;;;;;;;;15.90;58.10;;;;;;5032383;28;19933;-81
2022/09/02 01:42:55;;;;;;;;;;;15.90;57.80;;;;;;5032515;28;19928;-81
2022/09/02 01:45:21;;;;;;;;;;;16.00;56.60;;;;;;5012423;28;19935;-80
2022/09/02 01:47:46;;;;;;;;;;;16.00;56.80;;;;;;5030943;28;20415;-81
2022/09/02 01:50:12;;;;;;;;;;;16.00;57.00;;;;;;5016712;28;19913;-81
2022/09/02 01:52:37;;;;;;;;;;;15.70;58.80;;;;;;5009991;28;20333;-81
2022/09/02 01:55:03;;;;;;;;;;;15.80;58.20;;;;;;5013126;28;20019;-80
2022/09/02 01:57:28;;;;;;;;;;;15.70;58.40;;;;;;5014596;28;19925;-81
2022/09/02 01:59:54;;;;;;;;;;;15.70;58.80;;;;;;5028136;28;20002;-81
2022/09/02 02:02:19;;;;;;;;;;;15.60;59.30;;;;;;5014876;28;19944;-81
2022/09/02 02:04:45;;;;;;;;;;;15.60;59.70;;;;;;5013595;28;19929;-81
2022/09/02 02:07:15;;;;;;;;;;;15.60;58.80;;;;;;5015522;28;19917;-81
2022/09/02 02:09:41;;;;;;;;;;;15.60;58.40;;;;;;5029054;28;19913;-81
2022/09/02 02:12:06;;;;;;;;;;;15.50;58.60;;;;;;5016365;28;19913;-81
2022/09/02 02:14:32;;;;;;;;;;;15.40;58.90;;;;;;5031739;28;20012;-81
2022/09/02 02:16:57;;;;;;;;;;;15.50;58.90;;;;;;5031797;28;19960;-81
2022/09/02 02:19:23;;;;;;;;;;;15.40;59.40;;;;;;5027038;28;19913;-81
2022/09/02 02:21:48;;;;;;;;;;;15.50;58.90;;;;;;5016131;28;19925;-81
2022/09/02 02:24:14;;;;;;;;;;;15.60;57.80;;;;;;5011290;28;20011;-80
2022/09/02 02:26:39;;;;;;;;;;;15.70;57.30;;;;;;5009271;28;20336;-81
2022/09/02 02:29:05;;;;;;;;;;;15.60;58.10;;;;;;5010799;28;20000;-81
2022/09/02 02:31:30;;;;;;;;;;;15.50;58.90;;;;;;5029412;28;20368;-81
2022/09/02 02:33:56;;;;;;;;;;;15.60;57.90;;;;;;5030971;28;19917;-80
2022/09/02 02:36:22;;;;;;;;;;;15.60;57.60;;;;;;5016305;28;20004;-81
2022/09/02 02:38:47;;;;;;;;;;;15.50;57.70;;;;;;5010615;28;19917;-81
2022/09/02 02:41:13;;;;;;;;;;;15.60;57.10;;;;;;5031313;28;20092;-81
2022/09/02 02:43:39;;;;;;;;;;;15.60;57.60;;;;;;5031801;28;19932;-81
2022/09/02 02:46:05;;;;;;;;;;;15.30;58.30;;;;;;5017055;28;19913;-80
2022/09/02 02:48:32;;;;;;;;;;;15.30;58.90;;;;;;5024898;28;19913;-80
2022/09/02 02:50:57;;;;;;;;;;;15.30;59.10;;;;;;5015970;28;19936;-81
2022/09/02 02:53:23;;;;;;;;;;;15.20;59.10;;;;;;5031211;28;19917;-81
2022/09/02 02:55:48;;;;;;;;;;;15.30;59.10;;;;;;5015528;28;19924;-81
2022/09/02 02:58:13;;;;;;;;;;;15.20;59.30;;;;;;5031272;28;20344;-81
2022/09/02 03:00:40;;;;;;;;;;;15.20;59.40;;;;;;5030445;28;19917;-80
2022/09/02 03:03:07;;;;;;;;;;;15.30;58.40;;;;;;5011428;28;19999;-81
2022/09/02 03:05:34;;;;;;;;;;;15.20;59.40;;;;;;5014731;28;19913;-81
2022/09/02 03:08:00;;;;;;;;;;;15.20;59.30;;;;;;5012225;28;20372;-80
2022/09/02 03:10:26;;;;;;;;;;;15.30;58.50;;;;;;5020808;28;19913;-80
2022/09/02 03:12:51;;;;;;;;;;;15.20;59.30;;;;;;5031317;28;19913;-80
2022/09/02 03:15:17;;;;;;;;;;;15.30;58.60;;;;;;5030294;28;19909;-81
2022/09/02 03:17:43;;;;;;;;;;;15.10;58.80;;;;;;5051057;28;19956;-80
2022/09/02 03:20:09;;;;;;;;;;;15.00;59.00;;;;;;5042823;28;20323;-80
2022/09/02 03:22:37;;;;;;;;;;;14.80;59.50;;;;;;5025172;28;19921;-81
2022/09/02 03:25:04;;;;;;;;;;;15.00;59.20;;;;;;5035177;28;19917;-81
2022/09/02 03:27:30;;;;;;;;;;;14.90;59.80;;;;;;5018579;28;19913;-81
2022/09/02 03:29:55;;;;;;;;;;;14.90;60.20;;;;;;5015585;28;20117;-81
2022/09/02 03:32:21;;;;;;;;;;;15.00;59.70;;;;;;5014308;28;19921;-81
2022/09/02 03:34:47;;;;;;;;;;;15.00;59.60;;;;;;5014537;28;19944;-80
2022/09/02 03:37:12;;;;;;;;;;;14.90;59.50;;;;;;5032246;28;19920;-81
2022/09/02 03:39:39;;;;;;;;;;;14.70;59.70;;;;;;5015278;28;19965;-81
2022/09/02 03:42:06;;;;;;;;;;;14.60;60.20;;;;;;5014225;28;20356;-80
2022/09/02 03:44:33;;;;;;;;;;;14.50;60.40;;;;;;5025253;28;20008;-80
2022/09/02 03:46:58;;;;;;;;;;;14.50;60.70;;;;;;5028290;28;19948;-81
2022/09/02 03:49:25;;;;;;;;;;;14.40;60.90;;;;;;5011522;28;19913;-81
2022/09/02 03:51:51;;;;;;;;;;;14.30;61.10;;;;;;5044182;28;19928;-80
2022/09/02 03:54:17;;;;;;;;;;;14.40;61.30;;;;;;5049717;28;19901;-80
2022/09/02 03:56:42;;;;;;;;;;;14.40;61.60;;;;;;5033859;28;19921;-81
2022/09/02 03:59:08;;;;;;;;;;;14.50;62.00;;;;;;5013792;28;20299;-81
2022/09/02 04:01:33;;;;;;;;;;;14.50;61.30;;;;;;5011803;28;20031;-81
2022/09/02 04:04:00;;;;;;;;;;;14.60;61.70;;;;;;5017441;28;19959;-81
2022/09/02 04:06:26;;;;;;;;;;;14.80;60.40;;;;;;5014701;28;19948;-80
2022/09/02 04:08:51;;;;;;;;;;;14.80;61.10;;;;;;5013798;28;19913;-80
2022/09/02 04:11:18;;;;;;;;;;;14.90;60.60;;;;;;5020151;28;19957;-81
2022/09/02 04:13:45;;;;;;;;;;;15.10;58.80;;;;;;5010190;28;20296;-82
2022/09/02 04:16:12;;;;;;;;;;;15.00;60.40;;;;;;5032377;28;19960;-81
2022/09/02 04:18:37;;;;;;;;;;;15.00;59.60;;;;;;5034491;28;20032;-81
2022/09/02 04:21:03;;;;;;;;;;;14.90;59.80;;;;;;5034884;28;19925;-81
2022/09/02 04:23:29;;;;;;;;;;;14.90;59.70;;;;;;5018419;28;19924;-82
2022/09/02 04:25:54;;;;;;;;;;;14.80;60.20;;;;;;5018625;28;19943;-80
2022/09/02 04:28:20;;;;;;;;;;;14.80;60.10;;;;;;5036812;28;19925;-81
2022/09/02 04:30:46;;;;;;;;;;;14.70;61.00;;;;;;5025807;28;19913;-82
2022/09/02 04:33:12;;;;;;;;;;;14.70;60.70;;;;;;5020190;28;19921;-82
2022/09/02 04:35:41;;;;;;;;;;;14.70;60.80;;;;;;5034926;28;19917;-82
2022/09/02 04:38:07;;;;;;;;;;;15.00;59.20;;;;;;5034733;28;19952;-82
2022/09/02 04:40:32;;;;;;;;;;;15.00;59.50;;;;;;5035961;28;20273;-81
2022/09/02 04:42:58;;;;;;;;;;;15.10;58.70;;;;;;5034045;28;19921;-81
2022/09/02 04:45:24;;;;;;;;;;;15.00;59.50;;;;;;5032863;28;19913;-82
2022/09/02 04:47:49;;;;;;;;;;;14.90;60.70;;;;;;5051203;22;20427;-77
2022/09/02 04:50:15;;;;;;;;;;;14.90;61.00;;;;;;5013805;28;20056;-76
2022/09/02 04:52:41;;;;;;;;;;;14.80;60.70;;;;;;5017965;28;20273;-77
2022/09/02 04:55:06;;;;;;;;;;;14.70;60.50;;;;;;5009918;28;19917;-77
2022/09/02 04:57:32;;;;;;;;;;;14.90;59.70;;;;;;5029473;28;19933;-77
2022/09/02 04:59:57;;;;;;;;;;;14.80;61.20;;;;;;5026518;28;19920;-76
2022/09/02 05:02:23;;;;;;;;;;;14.90;61.20;;;;;;5022430;28;19913;-77
2022/09/02 05:04:48;;;;;;;;;;;14.90;60.80;;;;;;5019099;28;20380;-78
2022/09/02 05:07:14;;;;;;;;;;;14.90;61.20;;;;;;5031316;28;20011;-77
2022/09/02 05:09:40;;;;;;;;;;;15.00;60.20;;;;;;5006505;28;19964;-79
2022/09/02 05:12:06;;;;;;;;;;;15.20;59.70;;;;;;5007485;28;19955;-79
2022/09/02 05:14:31;;;;;;;;;;;15.10;59.60;;;;;;5028822;28;20566;-78
2022/09/02 05:16:59;;;;;;;;;;;14.90;60.00;;;;;;5028300;28;19909;-77
2022/09/02 05:19:24;;;;;;;;;;;14.90;60.40;;;;;;5006485;28;19924;-77
2022/09/02 05:21:54;;;;;;;;;;;14.90;60.60;;;;;;5014924;28;19913;-79
2022/09/02 05:24:19;;;;;;;;;;;14.90;60.90;;;;;;5020984;28;19921;-77
2022/09/02 05:26:44;;;;;;;;;;;15.00;60.80;;;;;;5027970;28;19921;-77
2022/09/02 05:29:11;;;;;;;;;;;14.90;60.20;;;;;;5011873;28;19984;-80
2022/09/02 05:31:37;;;;;;;;;;;14.90;60.70;;;;;;5030654;28;19917;-80
2022/09/02 05:34:02;;;;;;;;;;;14.80;61.60;;;;;;5013492;28;20367;-80
2022/09/02 05:36:30;;;;;;;;;;;14.80;61.60;;;;;;5013510;28;20115;-82
2022/09/02 05:38:55;;;;;;;;;;;14.70;61.50;;;;;;5010768;28;19952;-80
2022/09/02 05:41:22;;;;;;;;;;;14.80;61.80;;;;;;5028743;28;19913;-83
2022/09/02 05:43:48;;;;;;;;;;;14.80;62.50;;;;;;5009128;28;20441;-79
2022/09/02 05:46:16;;;;;;;;;;;14.90;62.20;;;;;;5022874;28;19972;-82
2022/09/02 05:51:26;;;;;;;;;;;15.10;60.70;;;;;;5025794;28;19959;-79
2022/09/02 05:53:52;;;;;;;;;;;15.10;60.80;;;;;;5011328;28;20292;-80
2022/09/02 05:56:18;;;;;;;;;;;15.10;61.60;;;;;;5025932;28;19971;-80
2022/09/02 05:58:43;;;;;;;;;;;15.50;59.50;;;;;;5022854;28;19925;-81
2022/09/02 06:01:09;;;;;;;;;;;15.50;59.60;;;;;;5007567;28;19924;-80
2022/09/02 06:03:35;;;;;;;;;;;15.40;60.60;;;;;;5032602;28;19921;-80
2022/09/02 06:06:01;;;;;;;;;;;15.50;60.80;;;;;;5015606;28;19925;-79
2022/09/02 06:08:26;;;;;;;;;;;15.50;60.60;;;;;;5010169;28;19924;-80
2022/09/02 06:10:52;;;;;;;;;;;15.60;61.30;;;;;;5025178;28;19944;-81
2022/09/02 06:13:21;;;;;;;;;;;15.50;61.10;;;;;;5013966;28;19916;-81
2022/09/02 06:15:50;;;;;;;;;;;15.60;61.60;;;;;;5007087;28;19928;-81
2022/09/02 06:18:16;;;;;;;;;;;15.50;62.10;;;;;;5011103;28;20019;-79
2022/09/02 06:20:43;;;;;;;;;;;15.60;60.70;;;;;;5024402;28;20307;-81
2022/09/02 06:23:09;;;;;;;;;;;15.60;60.70;;;;;;5009974;28;19924;-81
2022/09/02 06:25:38;;;;;;;;;;;15.60;60.60;;;;;;5006531;28;19921;-83
2022/09/02 06:28:03;;;;;;;;;;;15.60;60.60;;;;;;5015184;28;19925;-79
2022/09/02 06:30:29;;;;;;;;;;;15.70;60.80;;;;;;5006203;28;19913;-79
2022/09/02 06:32:54;;;;;;;;;;;15.70;60.90;;;;;;5004930;28;19966;-80
2022/09/02 06:35:20;;;;;;;;;;;15.80;60.70;;;;;;5011319;28;19960;-80
2022/09/02 06:37:46;;;;;;;;;;;15.80;60.60;;;;;;5008521;28;19925;-79
2022/09/02 06:40:13;;;;;;;;;;;15.80;61.00;;;;;;5005793;28;19982;-80
2022/09/02 06:42:39;;;;;;;;;;;15.90;60.80;;;;;;5024816;28;19941;-79
2022/09/02 06:45:04;;;;;;;;;;;16.00;60.40;;;;;;5010557;28;19920;-80
2022/09/02 06:47:30;;;;;;;;;;;16.10;60.40;;;;;;5022046;28;19963;-80
2022/09/02 06:49:56;;;;;;;;;;;16.30;59.80;;;;;;5005893;28;19924;-80
2022/09/02 06:52:22;;;;;;;;;;;16.30;59.70;;;;;;5023690;28;20383;-81
2022/09/02 06:54:49;;;;;;;;;;;16.30;59.70;;;;;;5025565;28;20020;-78
2022/09/02 06:57:15;;;;;;;;;;;16.60;58.90;;;;;;5005641;28;19968;-79
2022/09/02 06:59:40;;;;;;;;;;;16.60;59.20;;;;;;5008427;28;20438;-78
2022/09/02 07:02:06;;;;;;;;;;;16.60;60.10;;;;;;5007826;28;19923;-79
2022/09/02 07:07:15;;;;;;;;;;;16.90;60.40;;;;;;5024933;28;20435;-80
2022/09/02 07:09:41;;;;;;;;;;;17.00;58.60;;;;;;5004377;28;19913;-83
2022/09/02 07:12:07;;;;;;;;;;;17.10;58.60;;;;;;5008480;28;19913;-81
2022/09/02 07:14:37;;;;;;;;;;;17.40;57.90;;;;;;5010274;28;19913;-81
2022/09/02 07:17:03;;;;;;;;;;;17.50;56.40;;;;;;5008076;28;19928;-80
2022/09/02 07:19:28;;;;;;;;;;;17.60;57.10;;;;;;5002760;28;20257;-82
2022/09/02 07:21:55;;;;;;;;;;;17.80;55.70;;;;;;5001413;28;22271;-81
2022/09/02 07:24:21;;;;;;;;;;;17.80;56.10;;;;;;5013657;28;20020;-81
2022/09/02 07:26:47;;;;;;;;;;;17.80;56.10;;;;;;5007409;28;19921;-84
2022/09/02 07:29:13;;;;;;;;;;;18.10;55.30;;;;;;5023270;28;20028;-83
2022/09/02 07:31:40;;;;;;;;;;;18.00;55.20;;;;;;5011614;28;19913;-84
2022/09/02 07:34:07;;;;;;;;;;;17.60;56.60;;;;;;5026556;28;19925;-80
2022/09/02 07:36:33;;;;;;;;;;;17.30;57.00;;;;;;5010526;28;20023;-84
2022/09/02 07:38:59;;;;;;;;;;;17.10;58.10;;;;;;5011520;28;20016;-82
2022/09/02 07:41:25;;;;;;;;;;;16.90;58.60;;;;;;5027616;28;19968;-83
2022/09/02 07:43:51;;;;;;;;;;;16.90;59.40;;;;;;5008620;28;19924;-79
2022/09/02 07:46:17;;;;;;;;;;;16.80;59.80;;;;;;5004431;28;20128;-80
2022/09/02 07:48:42;;;;;;;;;;;16.80;60.00;;;;;;5030348;28;19924;-81
2022/09/02 07:51:08;;;;;;;;;;;16.90;60.70;;;;;;5026734;28;19945;-80
2022/09/02 07:53:34;;;;;;;;;;;17.10;60.40;;;;;;5007757;28;19917;-81
2022/09/02 07:56:00;;;;;;;;;;;17.20;59.00;;;;;;5007487;28;19982;-79
2022/09/02 07:58:26;;;;;;;;;;;17.50;59.30;;;;;;5005640;28;19933;-79
2022/09/02 08:00:52;;;;;;;;;;;17.60;57.80;;;;;;5024924;28;19917;-79
2022/09/02 08:03:18;;;;;;;;;;;18.00;57.60;;;;;;5023065;28;19929;-79
2022/09/02 08:05:45;;;;;;;;;;;18.10;57.00;;;;;;5019625;28;19957;-80
2022/09/02 08:08:13;;;;;;;;;;;18.10;56.90;;;;;;5025739;28;20299;-80
2022/09/02 08:10:38;;;;;;;;;;;18.20;57.00;;;;;;5004791;28;19913;-80
2022/09/02 08:13:05;;;;;;;;;;;18.20;57.40;;;;;;5026300;28;20012;-80
2022/09/02 08:15:31;;;;;;;;;;;18.40;56.80;;;;;;5025351;28;19921;-79
2022/09/02 08:17:57;;;;;;;;;;;18.50;55.90;;;;;;5006041;28;19925;-79
2022/09/02 08:20:22;;;;;;;;;;;18.80;55.40;;;;;;5008213;28;19936;-80
2022/09/02 08:22:48;;;;;;;;;;;18.80;55.20;;;;;;5023300;28;19920;-79
2022/09/02 08:25:14;;;;;;;;;;;18.80;56.00;;;;;;5006210;28;19913;-79
2022/09/02 08:27:40;;;;;;;;;;;18.80;55.80;;;;;;5023610;28;19948;-80
2022/09/02 08:30:09;;;;;;;;;;;18.80;55.60;;;;;;5025409;28;19967;-80
2022/09/02 08:32:34;;;;;;;;;;;18.80;55.90;;;;;;5031305;28;19917;-80
2022/09/02 08:35:01;;;;;;;;;;;18.90;55.80;;;;;;5006364;28;20005;-79
2022/09/02 08:37:30;;;;;;;;;;;19.00;55.80;;;;;;5017810;28;19914;-81
2022/09/02 08:39:56;;;;;;;;;;;19.00;55.40;;;;;;5024068;28;19920;-80
2022/09/02 08:42:30;;;;;;;;;;;19.10;56.10;;;;;;5025644;28;20299;-80
2022/09/02 08:44:59;;;;;;;;;;;19.20;55.40;;;;;;5031261;28;19913;-80
2022/09/02 08:47:28;;;;;;;;;;;19.10;54.90;;;;;;5030183;28;19924;-80
2022/09/02 08:49:59;;;;;;;;;;;19.20;55.70;;;;;;5010406;28;19939;-81
2022/09/02 08:52:35;;;;;;;;;;;19.30;55.70;;;;;;5011985;28;19917;-81
2022/09/02 08:55:01;;;;;;;;;;;19.50;56.00;;;;;;5005014;28;19917;-80
2022/09/02 08:57:27;;;;;;;;;;;19.50;54.80;;;;;;5018421;28;19920;-80
2022/09/02 08:59:55;;;;;;;;;;;19.50;55.40;;;;;;5011991;28;19917;-80
2022/09/02 09:02:42;;;;;;;;;;;19.60;55.40;;;;;;5006118;28;19913;-78
2022/09/02 09:05:17;;;;;;;;;;;19.60;55.70;;;;;;5026894;28;19909;-80
2022/09/02 09:07:45;;;;;;;;;;;19.60;55.90;;;;;;5026482;28;20012;-81
2022/09/02 09:10:31;;;;;;;;;;;19.80;55.20;;;;;;5030430;28;19913;-79
2022/09/02 09:13:03;;;;;;;;;;;19.90;55.20;;;;;;4989290;28;19913;-77
2022/09/02 09:15:34;;;;;;;;;;;20.00;54.20;;;;;;5010860;28;19913;-79
2022/09/02 09:18:04;;;;;;;;;;;20.30;53.70;;;;;;5030127;28;19913;-82
2022/09/02 09:20:33;;;;;;;;;;;20.30;53.30;;;;;;5021065;28;20013;-80
2022/09/02 09:23:00;;;;;;;;;;;20.60;52.00;;;;;;5009602;28;19913;-79
2022/09/02 09:25:29;;;;;;;;;;;20.60;51.60;;;;;;5024776;28;19909;-80
2022/09/02 09:27:55;;;;;;;;;;;20.50;52.60;;;;;;5011593;28;19914;-79
2022/09/02 09:30:21;;;;;;;;;;;20.50;53.20;;;;;;5024762;28;19960;-79
2022/09/02 09:32:48;;;;;;;;;;;20.50;53.00;;;;;;5017209;28;19917;-79
2022/09/02 09:35:14;;;;;;;;;;;20.50;52.90;;;;;;5016777;28;20380;-79
2022/09/02 09:37:41;;;;;;;;;;;20.60;52.00;;;;;;5022381;28;19965;-79
2022/09/02 09:40:21;;;;;;;;;;;20.80;53.20;;;;;;5004834;28;19913;-79
2022/09/02 09:42:48;;;;;;;;;;;20.80;53.00;;;;;;5022000;28;19924;-79
2022/09/02 09:45:16;;;;;;;;;;;20.90;52.50;;;;;;5030839;28;19959;-79
2022/09/02 09:47:41;;;;;;;;;;;20.80;52.40;;;;;;5011078;28;19964;-79
2022/09/02 09:50:12;;;;;;;;;;;20.70;52.40;;;;;;5000295;28;19917;-79
2022/09/02 09:52:38;;;;;;;;;;;21.00;51.90;;;;;;5004439;28;19914;-79
2022/09/02 09:55:16;;;;;;;;;;;21.00;52.90;;;;;;5029428;28;19913;-79
2022/09/02 09:57:43;;;;;;;;;;;21.00;52.00;;;;;;5007442;28;19924;-79
2022/09/02 10:00:10;;;;;;;;;;;21.00;52.90;;;;;;5007490;28;20388;-79
2022/09/02 10:02:44;;;;;;;;;;;21.10;52.60;;;;;;5007960;28;19948;-79
2022/09/02 10:05:16;;;;;;;;;;;21.10;53.00;;;;;;5000066;28;20020;-79
2022/09/02 10:07:42;;;;;;;;;;;21.10;52.30;;;;;;5014465;28;19913;-79
2022/09/02 10:10:16;;;;;;;;;;;21.20;52.90;;;;;;5015316;28;19989;-79
2022/09/02 10:12:42;;;;;;;;;;;21.40;52.40;;;;;;5006369;28;19913;-80
2022/09/02 10:15:08;;;;;;;;;;;21.20;52.70;;;;;;5001311;28;19921;-80
2022/09/02 10:17:42;;;;;;;;;;;21.40;51.00;;;;;;4999932;28;19921;-82
2022/09/02 10:20:30;;;;;;;;;;;21.60;51.70;;;;;;5007157;28;19972;-82
2022/09/02 10:23:15;;;;;;;;;;;21.50;51.20;;;;;;5020609;28;19913;-81
2022/09/02 10:25:41;;;;;;;;;;;21.70;52.10;;;;;;5028107;28;19917;-82
2022/09/02 10:28:15;;;;;;;;;;;21.70;51.80;;;;;;5033374;28;19975;-83
2022/09/02 10:30:59;;;;;;;;;;;21.60;51.30;;;;;;5032624;28;19920;-81
2022/09/02 10:33:44;;;;;;;;;;;21.60;52.30;;;;;;5024120;28;19909;-82
2022/09/02 10:36:12;;;;;;;;;;;21.70;51.60;;;;;;5014499;28;19913;-82
2022/09/02 10:38:47;;;;;;;;;;;21.80;51.30;;;;;;4995687;28;19921;-81
2022/09/02 10:41:13;;;;;;;;;;;22.00;50.90;;;;;;5004055;28;20022;-81
2022/09/02 10:43:42;;;;;;;;;;;22.30;50.60;;;;;;5012344;28;20001;-82
2022/09/02 10:46:11;;;;;;;;;;;22.10;49.20;;;;;;5019945;28;19939;-82
2022/09/02 10:48:39;;;;;;;;;;;22.00;50.30;;;;;;5061835;22;20309;-77
2022/09/02 10:51:17;;;;;;;;;;;22.30;49.40;;;;;;5048463;28;20050;-76
2022/09/02 10:54:02;;;;;;;;;;;22.40;46.70;;;;;;5046298;28;20377;-76
2022/09/02 10:56:46;;;;;;;;;;;22.50;47.40;;;;;;5048554;28;19967;-76
2022/09/02 10:59:22;;;;;;;;;;;22.60;48.80;;;;;;5028433;28;19925;-76
2022/09/02 11:01:51;;;;;;;;;;;22.60;47.90;;;;;;5030203;28;19960;-76
2022/09/02 11:04:36;;;;;;;;;;;22.60;47.60;;;;;;5024091;28;19933;-75
2022/09/02 11:07:02;;;;;;;;;;;22.60;43.40;;;;;;5023490;28;19913;-76
2022/09/02 11:09:32;;;;;;;;;;;22.70;44.90;;;;;;5028570;28;20486;-76
2022/09/02 11:12:01;;;;;;;;;;;22.60;46.80;;;;;;5026007;28;19925;-76
2022/09/02 11:14:33;;;;;;;;;;;22.80;46.50;;;;;;5030342;28;19913;-76
2022/09/02 11:17:01;;;;;;;;;;;22.90;46.00;;;;;;5023059;28;20004;-76
2022/09/02 11:19:42;;;;;;;;;;;22.90;45.40;;;;;;5025758;28;19917;-75
2022/09/02 11:22:16;;;;;;;;;;;23.30;44.30;;;;;;5031057;28;19911;-75
2022/09/02 11:24:41;;;;;;;;;;;23.10;44.90;;;;;;5024765;28;20258;-75
2022/09/02 11:27:10;;;;;;;;;;;23.10;45.50;;;;;;5029436;28;19967;-75
2022/09/02 11:29:56;;;;;;;;;;;23.10;45.20;;;;;;5029442;28;19916;-76
2022/09/02 11:32:31;;;;;;;;;;;23.10;43.40;;;;;;5028425;28;19920;-75
2022/09/02 11:34:57;;;;;;;;;;;23.00;44.80;;;;;;5030475;28;19913;-76
2022/09/02 11:37:27;;;;;;;;;;;23.20;44.30;;;;;;5029887;28;20531;-77
2022/09/02 11:40:02;;;;;;;;;;;23.30;45.30;;;;;;5031315;28;19909;-76
2022/09/02 11:42:33;;;;;;;;;;;23.50;43.50;;;;;;5031132;28;19916;-76
2022/09/02 11:44:58;;;;;;;;;;;23.50;43.00;;;;;;5029261;28;19917;-76
2022/09/02 11:47:24;;;;;;;;;;;23.40;42.90;;;;;;5029324;28;19920;-76
2022/09/02 11:50:16;;;;;;;;;;;23.50;42.70;;;;;;5028854;28;19928;-76
2022/09/02 11:53:05;;;;;;;;;;;23.60;42.40;;;;;;5025829;28;19932;-76
2022/09/02 11:55:36;;;;;;;;;;;23.80;41.40;;;;;;5021444;28;20424;-76
2022/09/02 11:58:02;;;;;;;;;;;23.80;42.30;;;;;;5028564;28;20003;-77
2022/09/02 12:00:29;;;;;;;;;;;23.80;43.30;;;;;;5023921;28;20047;-75
2022/09/02 12:03:00;;;;;;;;;;;24.00;41.60;;;;;;5020377;28;20338;-76
2022/09/02 12:05:31;;;;;;;;;;;24.10;36.90;;;;;;5023353;28;19914;-76
2022/09/02 12:08:03;;;;;;;;;;;24.30;37.40;;;;;;5021023;28;19921;-76
2022/09/02 12:10:47;;;;;;;;;;;24.30;37.20;;;;;;5021411;28;20004;-76
2022/09/02 12:13:31;;;;;;;;;;;24.20;36.70;;;;;;5020904;28;19914;-76
2022/09/02 12:16:11;;;;;;;;;;;24.20;36.60;;;;;;5022096;28;20760;-76
2022/09/02 12:18:38;;;;;;;;;;;24.30;36.60;;;;;;5023715;28;19967;-76
2022/09/02 12:21:05;;;;;;;;;;;24.20;35.50;;;;;;5028089;28;20386;-76
2022/09/02 12:23:49;;;;;;;;;;;24.20;35.90;;;;;;5022880;28;19917;-75
2022/09/02 12:26:15;;;;;;;;;;;24.10;36.50;;;;;;5025641;28;19913;-76
2022/09/02 12:28:47;;;;;;;;;;;24.30;36.60;;;;;;5027665;28;20541;-76
2022/09/02 12:31:15;;;;;;;;;;;24.30;37.20;;;;;;5026926;28;19928;-76
2022/09/02 12:33:45;;;;;;;;;;;24.30;38.00;;;;;;5019610;28;19913;-79
2022/09/02 12:36:30;;;;;;;;;;;24.10;36.50;;;;;;5027443;28;19970;-76
2022/09/02 12:39:15;;;;;;;;;;;24.10;37.60;;;;;;5019864;28;19921;-75
2022/09/02 12:41:42;;;;;;;;;;;24.10;38.40;;;;;;5026977;28;19914;-76
2022/09/02 12:44:08;;;;;;;;;;;23.90;37.40;;;;;;5023297;28;19936;-76
2022/09/02 12:46:43;;;;;;;;;;;24.00;36.50;;;;;;5040895;28;20302;-76
2022/09/02 12:49:28;;;;;;;;;;;23.90;38.00;;;;;;5027714;28;19917;-76
2022/09/02 12:51:56;;;;;;;;;;;23.90;36.40;;;;;;5040461;28;20368;-76
2022/09/02 12:54:23;;;;;;;;;;;24.00;36.70;;;;;;5028111;28;19913;-76
2022/09/02 12:56:50;;;;;;;;;;;24.00;37.70;;;;;;5027403;28;19920;-76
2022/09/02 12:59:26;;;;;;;;;;;24.00;36.10;;;;;;5031421;28;19921;-76
2022/09/02 13:01:57;;;;;;;;;;;24.00;36.60;;;;;;5029668;28;19955;-77
2022/09/02 13:04:27;;;;;;;;;;;24.10;37.40;;;;;;5029184;28;19921;-76
2022/09/02 13:07:11;;;;;;;;;;;24.50;35.30;;;;;;5026106;28;20376;-77
2022/09/02 13:09:55;;;;;;;;;;;25.00;34.60;;;;;;5022922;28;20008;-76
2022/09/02 13:12:39;;;;;;;;;;;25.10;34.90;;;;;;5025426;28;19913;-76
2022/09/02 13:15:05;;;;;;;;;;;25.20;34.00;;;;;;5024015;28;20290;-76
2022/09/02 13:18:05;;;;;;;;;;;25.40;33.70;;;;;;5025937;28;19935;-77
2022/09/02 13:20:48;;;;;;;;;;;25.50;33.20;;;;;;5029504;28;19913;-77
2022/09/02 13:23:16;;;;;;;;;;;25.60;32.50;;;;;;5027763;28;19925;-77
2022/09/02 13:25:42;;;;;;;;;;;25.70;32.60;;;;;;5020542;28;19913;-76
2022/09/02 13:28:10;;;;;;;;;;;25.70;34.10;;;;;;5028135;28;19913;-77
2022/09/02 13:30:48;;;;;;;;;;;25.60;33.10;;;;;;5022365;28;19920;-76
2022/09/02 13:33:13;;;;;;;;;;;25.60;33.70;;;;;;5032493;28;19929;-76
2022/09/02 13:35:40;;;;;;;;;;;25.50;33.90;;;;;;5025155;28;19913;-77
2022/09/02 13:38:08;;;;;;;;;;;25.30;33.40;;;;;;5031082;28;20281;-77
2022/09/02 13:40:35;;;;;;;;;;;25.40;34.10;;;;;;5028115;28;20811;-76
2022/09/02 13:43:20;;;;;;;;;;;25.10;33.90;;;;;;5025422;28;19917;-77
2022/09/02 13:45:47;;;;;;;;;;;25.10;34.00;;;;;;5023858;28;20024;-76
2022/09/02 13:48:13;;;;;;;;;;;25.00;34.10;;;;;;5024363;28;19960;-77
2022/09/02 13:50:41;;;;;;;;;;;25.00;33.90;;;;;;5027770;28;19920;-76
2022/09/02 13:53:09;;;;;;;;;;;24.90;33.50;;;;;;5026983;28;19913;-76
2022/09/02 13:55:35;;;;;;;;;;;24.70;33.80;;;;;;5023741;28;19928;-76
2022/09/02 13:58:02;;;;;;;;;;;24.80;34.00;;;;;;5024198;28;20247;-76
2022/09/02 14:00:32;;;;;;;;;;;24.70;33.60;;;;;;5028305;28;19913;-76
2022/09/02 14:02:59;;;;;;;;;;;24.60;33.10;;;;;;5028781;28;20444;-77
2022/09/02 14:05:25;;;;;;;;;;;24.60;35.50;;;;;;5027112;28;20008;-76
2022/09/02 14:07:53;;;;;;;;;;;24.60;34.30;;;;;;5026745;28;20429;-76
2022/09/02 14:10:21;;;;;;;;;;;24.50;34.60;;;;;;5019525;28;19967;-75
2022/09/02 14:12:47;;;;;;;;;;;24.60;35.80;;;;;;5021698;28;20402;-76
2022/09/02 14:15:13;;;;;;;;;;;24.70;34.10;;;;;;5031003;28;20366;-76
2022/09/02 14:17:39;;;;;;;;;;;24.50;35.30;;;;;;5030394;28;19920;-76
2022/09/02 14:20:18;;;;;;;;;;;24.50;35.20;;;;;;5030877;28;19921;-75
2022/09/02 14:22:53;;;;;;;;;;;24.50;34.80;;;;;;5029395;28;19940;-76
2022/09/02 14:25:20;;;;;;;;;;;24.50;34.90;;;;;;5028189;28;20289;-76
2022/09/02 14:27:51;;;;;;;;;;;24.50;35.20;;;;;;5028834;28;19924;-75
2022/09/02 14:30:29;;;;;;;;;;;24.40;35.20;;;;;;5027944;28;19916;-75